Time,TemperatureF,DewpointF,PressureIn,WindDirection,WindDirectionDegrees,WindSpeedMPH,WindSpeedGustMPH,Humidity,HourlyPrecipIn,Conditions,Clouds,dailyrainin,SolarRadiationWatts/m^2,SoftwareType,DateUTC
2013-02-28 00:00:00,38.0,38.0,29.41,NW,307,3.8,7.2,99,0.00,,,-99.99,1.0,HOBO +U30 +Weather +,2013-02-28 05:00:00,
2013-02-28 00:15:00,37.5,37.4,29.42,WNW,298,4.3,11.2,99,0.00,,,-99.99,1.0,HOBO +U30 +Weather +,2013-02-28 05:15:00,
2013-02-28 00:30:00,36.9,36.8,29.42,WNW,295,4.3,7.8,99,0.00,,,-99.99,1.0,HOBO +U30 +Weather +,2013-02-28 05:30:00,
2013-02-28 00:45:00,36.5,36.3,29.42,NW,305,3.8,7.2,99,0.00,,,-99.99,1.0,HOBO +U30 +Weather +,2013-02-28 05:45:00,
2013-02-28 01:30:00,35.9,35.8,29.43,NW,307,3.4,8.3,99,0.00,,,-99.99,1.0,HOBO +U30 +Weather +,2013-02-28 06:30:00,
2013-02-28 01:45:00,35.7,35.6,29.43,NW,306,3.4,6.3,99,0.00,,,-99.99,1.0,HOBO +U30 +Weather +,2013-02-28 06:45:00,
2013-02-28 02:00:00,35.5,35.4,29.44,West,279,2.9,5.8,99,0.00,,,-99.99,1.0,HOBO +U30 +Weather +,2013-02-28 07:00:00,
2013-02-28 02:15:00,35.3,35.2,29.44,WSW,257,1.6,8.3,99,0.00,,,-99.99,1.0,HOBO +U30 +Weather +,2013-02-28 07:15:00,
2013-02-28 02:30:00,35.2,35.0,29.44,West,268,4.5,7.8,99,0.00,,,-99.99,1.0,HOBO +U30 +Weather +,2013-02-28 07:30:00,
2013-02-28 02:45:00,35.1,34.9,29.44,West,271,4.3,8.7,99,0.00,,,-99.99,1.0,HOBO +U30 +Weather +,2013-02-28 07:45:00,
2013-02-28 03:00:00,34.9,34.8,29.44,WNW,288,3.8,8.7,99,0.00,,,-99.99,1.0,HOBO +U30 +Weather +,2013-02-28 08:00:00,
2013-02-28 03:15:00,34.8,34.6,29.44,NW,305,3.8,6.3,99,0.00,,,-99.99,1.0,HOBO +U30 +Weather +,2013-02-28 08:15:00,
2013-02-28 03:30:00,34.8,34.6,29.44,NW,305,2.9,6.3,99,0.00,,,-99.99,1.0,HOBO +U30 +Weather +,2013-02-28 08:30:00,
2013-02-28 03:45:00,34.7,34.5,29.44,West,278,3.8,8.7,99,0.00,,,-99.99,1.0,HOBO +U30 +Weather +,2013-02-28 08:45:00,
2013-02-28 04:15:00,34.4,34.2,29.44,WNW,284,3.4,6.3,99,0.00,,,-99.99,1.0,HOBO +U30 +Weather +,2013-02-28 09:15:00,
2013-02-28 04:30:00,34.3,34.1,29.44,WNW,302,2.5,4.9,99,0.00,,,-99.99,1.0,HOBO +U30 +Weather +,2013-02-28 09:30:00,
2013-02-28 04:45:00,34.1,33.9,29.45,WNW,295,2.9,5.8,99,0.00,,,-99.99,1.0,HOBO +U30 +Weather +,2013-02-28 09:45:00,
2013-02-28 05:00:00,33.9,33.7,29.46,WNW,289,2.9,6.7,99,0.00,,,-99.99,1.0,HOBO +U30 +Weather +,2013-02-28 10:00:00,
2013-02-28 05:15:00,33.8,33.6,29.47,WNW,302,3.8,8.3,99,0.00,,,-99.99,1.0,HOBO +U30 +Weather +,2013-02-28 10:15:00,
2013-02-28 05:30:00,33.9,33.7,29.47,West,275,3.8,7.4,99,0.00,,,-99.99,1.0,HOBO +U30 +Weather +,2013-02-28 10:30:00,
2013-02-28 05:45:00,33.8,33.5,29.47,WNW,284,3.8,8.3,99,0.00,,,-99.99,1.0,HOBO +U30 +Weather +,2013-02-28 10:45:00,
2013-02-28 06:00:00,33.7,33.4,29.47,West,272,3.8,7.8,99,0.00,,,-99.99,1.0,HOBO +U30 +Weather +,2013-02-28 11:00:00,
2013-02-28 06:15:00,33.6,33.3,29.47,West,268,3.4,7.2,98,0.00,,,-99.99,1.0,HOBO +U30 +Weather +,2013-02-28 11:15:00,
2013-02-28 06:30:00,33.6,33.1,29.47,WNW,293,2.5,4.9,98,0.00,,,-99.99,7.0,HOBO +U30 +Weather +,2013-02-28 11:30:00,
2013-02-28 06:45:00,33.7,33.1,29.47,WNW,291,2.9,6.3,97,0.00,,,-99.99,9.0,HOBO +U30 +Weather +,2013-02-28 11:45:00,
2013-02-28 07:00:00,33.7,33.0,29.47,WNW,300,2.5,4.9,97,0.00,,,-99.99,11.0,HOBO +U30 +Weather +,2013-02-28 12:00:00,
2013-02-28 07:15:00,33.6,33.0,29.47,WNW,302,2.0,5.4,97,0.00,,,-99.99,14.0,HOBO +U30 +Weather +,2013-02-28 12:15:00,
2013-02-28 07:30:00,33.6,32.9,29.48,NW,312,2.5,5.8,97,0.00,,,-99.99,16.0,HOBO +U30 +Weather +,2013-02-28 12:30:00,
2013-02-28 07:45:00,33.5,32.8,29.48,WNW,299,3.8,7.2,97,0.00,,,-99.99,19.0,HOBO +U30 +Weather +,2013-02-28 12:45:00,
2013-02-28 08:00:00,33.6,32.7,29.48,WNW,286,3.8,6.7,96,0.00,,,-99.99,27.0,HOBO +U30 +Weather +,2013-02-28 13:00:00,
2013-02-28 08:15:00,33.8,32.9,29.49,WNW,285,3.4,8.7,96,0.00,,,-99.99,44.0,HOBO +U30 +Weather +,2013-02-28 13:15:00,
2013-02-28 08:30:00,34.5,33.3,29.49,West,267,2.0,4.3,95,0.00,,,-99.99,49.0,HOBO +U30 +Weather +,2013-02-28 13:30:00,
2013-02-28 08:45:00,34.6,33.3,29.49,West,268,3.8,8.3,94,0.00,,,-99.99,118.0,HOBO +U30 +Weather +,2013-02-28 13:45:00,
2013-02-28 09:00:00,35.4,33.9,29.50,WSW,254,2.0,6.3,94,0.00,,,-99.99,132.0,HOBO +U30 +Weather +,2013-02-28 14:00:00,
2013-02-28 09:15:00,36.2,34.5,29.49,WSW,244,2.0,5.4,93,0.00,,,-99.99,194.0,HOBO +U30 +Weather +,2013-02-28 14:15:00,
2013-02-28 09:30:00,37.2,35.4,29.49,WSW,253,2.5,5.4,92,0.00,,,-99.99,206.0,HOBO +U30 +Weather +,2013-02-28 14:30:00,
2013-02-28 10:30:00,37.6,35.7,29.47,West,264,2.5,6.7,92,0.00,,,-99.99,257.0,HOBO +U30 +Weather +,2013-02-28 15:30:00,
2013-02-28 11:00:00,37.6,35.5,29.48,WSW,246,2.9,7.4,92,0.00,,,-99.99,191.0,HOBO +U30 +Weather +,2013-02-28 16:00:00,
2013-02-28 11:30:00,38.6,36.3,29.47,SSW,212,2.0,5.4,91,0.00,,,-99.99,227.0,HOBO +U30 +Weather +,2013-02-28 16:30:00,
2013-02-28 11:45:00,39.4,37.1,29.47,WSW,250,2.0,4.9,91,0.00,,,-99.99,269.0,HOBO +U30 +Weather +,2013-02-28 16:45:00,
2013-02-28 12:00:00,40.0,37.3,29.46,West,274,1.6,4.5,90,0.30,,,-99.99,329.0,HOBO +U30 +Weather +,2013-02-28 17:00:00,
2013-02-28 12:15:00,41.7,38.6,29.44,WNW,293,1.6,4.5,88,0.00,,,-99.99,471.0,HOBO +U30 +Weather +,2013-02-28 17:15:00,
2013-02-28 12:30:00,40.7,37.3,29.44,West,278,2.5,4.5,87,0.00,,,-99.99,241.0,HOBO +U30 +Weather +,2013-02-28 17:30:00,
2013-02-28 12:45:00,41.7,38.2,29.43,NNW,329,1.3,4.3,87,0.00,,,-99.99,278.0,HOBO +U30 +Weather +,2013-02-28 17:45:00,
2013-02-28 13:00:00,43.4,39.4,29.42,WNW,289,1.6,5.8,85,0.00,,,-99.99,504.0,HOBO +U30 +Weather +,2013-02-28 18:00:00,
2013-02-28 13:15:00,43.4,38.6,29.41,WNW,296,1.6,5.4,83,0.00,,,-99.99,393.0,HOBO +U30 +Weather +,2013-02-28 18:15:00,
2013-02-28 13:30:00,43.6,38.7,29.41,West,268,2.0,6.3,82,0.00,,,-99.99,423.0,HOBO +U30 +Weather +,2013-02-28 18:30:00,
2013-02-28 14:00:00,44.8,39.2,29.40,WSW,247,2.5,7.2,80,0.00,,,-99.99,252.0,HOBO +U30 +Weather +,2013-02-28 19:00:00,
2013-02-28 14:15:00,45.4,39.4,29.40,NW,312,2.0,4.5,79,0.00,,,-99.99,353.0,HOBO +U30 +Weather +,2013-02-28 19:15:00,
2013-02-28 14:30:00,44.3,37.8,29.39,NW,323,1.6,4.9,78,0.00,,,-99.99,152.0,HOBO +U30 +Weather +,2013-02-28 19:30:00,
2013-02-28 15:30:00,44.8,37.6,29.39,NW,320,1.3,5.8,75,0.00,,,-99.99,178.0,HOBO +U30 +Weather +,2013-02-28 20:30:00,
2013-02-28 15:45:00,46.2,38.9,29.38,WNW,295,2.5,6.3,75,0.00,,,-99.99,289.0,HOBO +U30 +Weather +,2013-02-28 20:45:00,
2013-02-28 16:00:00,46.4,38.5,29.38,WNW,303,3.4,6.7,73,0.00,,,-99.99,353.0,HOBO +U30 +Weather +,2013-02-28 21:00:00,
2013-02-28 16:15:00,45.4,37.0,29.38,NW,309,2.5,8.3,72,0.00,,,-99.99,79.0,HOBO +U30 +Weather +,2013-02-28 21:15:00,
2013-02-28 16:30:00,45.3,37.1,29.38,NW,305,2.9,5.8,72,0.00,,,-99.99,84.0,HOBO +U30 +Weather +,2013-02-28 21:30:00,
2013-02-28 16:45:00,45.2,37.0,29.38,WNW,288,3.8,7.2,72,0.00,,,-99.99,48.0,HOBO +U30 +Weather +,2013-02-28 21:45:00,
2013-02-28 17:00:00,44.7,36.7,29.39,WNW,303,2.9,5.8,73,0.00,,,-99.99,19.0,HOBO +U30 +Weather +,2013-02-28 22:00:00,
2013-02-28 17:15:00,44.2,36.5,29.39,NW,305,2.5,5.4,74,0.00,,,-99.99,14.0,HOBO +U30 +Weather +,2013-02-28 22:15:00,
2013-02-28 17:30:00,43.5,36.3,29.39,WNW,295,1.6,4.3,75,0.00,,,-99.99,3.0,HOBO +U30 +Weather +,2013-02-28 22:30:00,
2013-02-28 17:45:00,42.3,35.9,29.39,WNW,285,0.9,2.0,77,0.00,,,-99.99,1.0,HOBO +U30 +Weather +,2013-02-28 22:45:00,
2013-02-28 18:00:00,40.5,35.8,29.39,WNW,285,0.4,1.3,83,0.00,,,-99.99,1.0,HOBO +U30 +Weather +,2013-02-28 23:00:00,
2013-02-28 18:15:00,39.5,35.7,29.39,WNW,285,0.4,1.3,86,0.00,,,-99.99,1.0,HOBO +U30 +Weather +,2013-02-28 23:15:00,
2013-02-28 18:30:00,39.0,35.6,29.39,WNW,285,0.9,1.6,87,0.00,,,-99.99,1.0,HOBO +U30 +Weather +,2013-02-28 23:30:00,
2013-02-28 18:45:00,38.1,35.0,29.39,WNW,285,0.0,0.9,88,0.00,,,-99.99,1.0,HOBO +U30 +Weather +,2013-02-28 23:45:00,
2013-02-28 19:00:00,37.4,34.8,29.39,WNW,285,0.9,1.6,90,0.00,,,-99.99,1.0,HOBO +U30 +Weather +,2013-03-01 00:00:00,
2013-02-28 19:15:00,37.4,35.0,29.39,WNW,285,1.3,2.0,91,0.00,,,-99.99,1.0,HOBO +U30 +Weather +,2013-03-01 00:15:00,
2013-02-28 19:30:00,36.2,33.7,29.39,WNW,285,1.3,2.0,90,0.00,,,-99.99,1.0,HOBO +U30 +Weather +,2013-03-01 00:30:00,
2013-02-28 19:45:00,36.0,33.9,29.39,WNW,285,1.3,1.6,91,0.00,,,-99.99,1.0,HOBO +U30 +Weather +,2013-03-01 00:45:00,
2013-02-28 20:00:00,38.5,36.1,29.39,WNW,302,2.0,4.5,90,0.00,,,-99.99,1.0,HOBO +U30 +Weather +,2013-03-01 01:00:00,
2013-02-28 20:15:00,38.3,35.5,29.39,NW,326,2.5,4.9,89,0.00,,,-99.99,1.0,HOBO +U30 +Weather +,2013-03-01 01:15:00,
2013-02-28 20:30:00,38.7,35.3,29.39,NW,326,2.0,5.4,87,0.00,,,-99.99,1.0,HOBO +U30 +Weather +,2013-03-01 01:30:00,
2013-02-28 20:45:00,36.0,33.1,29.39,NW,314,2.0,2.9,88,0.00,,,-99.99,1.0,HOBO +U30 +Weather +,2013-03-01 01:45:00,
2013-02-28 21:00:00,37.4,35.1,29.39,NW,316,1.6,3.4,91,0.00,,,-99.99,1.0,HOBO +U30 +Weather +,2013-03-01 02:00:00,
2013-02-28 21:15:00,35.3,32.9,29.39,NW,317,0.9,2.5,90,0.00,,,-99.99,1.0,HOBO +U30 +Weather +,2013-03-01 02:15:00,
2013-02-28 21:30:00,37.4,35.3,29.39,NW,319,1.6,3.4,92,0.00,,,-99.99,1.0,HOBO +U30 +Weather +,2013-03-01 02:30:00,
2013-02-28 21:45:00,37.8,35.1,29.39,North,354,2.0,4.5,89,0.00,,,-99.99,1.0,HOBO +U30 +Weather +,2013-03-01 02:45:00,
2013-02-28 22:00:00,37.2,34.5,29.39,NNW,340,1.3,3.4,89,0.00,,,-99.99,1.0,HOBO +U30 +Weather +,2013-03-01 03:00:00,
2013-02-28 22:15:00,35.9,33.8,29.39,NW,326,1.3,2.0,92,0.00,,,-99.99,1.0,HOBO +U30 +Weather +,2013-03-01 03:15:00,
2013-02-28 22:30:00,36.1,34.3,29.39,NW,326,1.3,2.5,93,0.00,,,-99.99,1.0,HOBO +U30 +Weather +,2013-03-01 03:30:00,
2013-02-28 22:45:00,36.0,34.3,29.38,NW,326,0.4,2.0,93,0.00,,,-99.99,1.0,HOBO +U30 +Weather +,2013-03-01 03:45:00,
2013-02-28 23:00:00,36.5,34.9,29.38,NW,326,0.9,1.6,93,0.00,,,-99.99,1.0,HOBO +U30 +Weather +,2013-03-01 04:00:00,
2013-02-28 23:15:00,36.2,34.5,29.38,NW,326,1.3,2.0,93,0.00,,,-99.99,1.0,HOBO +U30 +Weather +,2013-03-01 04:15:00,
2013-02-28 23:30:00,35.5,34.0,29.38,NW,324,1.3,2.9,94,0.00,,,-99.99,1.0,HOBO +U30 +Weather +,2013-03-01 04:30:00,
2013-02-28 23:45:00,36.0,34.7,29.38,NW,321,1.3,2.9,94,0.00,,,-99.99,1.0,HOBO +U30 +Weather +,2013-03-01 04:45:00,